createdAt,value
2023-12-11T00:03:50.959Z,3.60
2023-12-11T00:08:54.127Z,3.60
2023-12-11T00:13:59.024Z,3.60
2023-12-11T00:19:02.061Z,3.60
2023-12-11T00:24:05.569Z,3.60
2023-12-11T00:29:09.457Z,3.70
2023-12-11T00:34:13.180Z,3.70
2023-12-11T00:39:18.160Z,3.70
2023-12-11T00:44:21.416Z,3.70
2023-12-11T00:49:24.806Z,3.70
2023-12-11T00:54:28.026Z,3.70
2023-12-11T00:59:31.117Z,3.70
2023-12-11T01:04:34.510Z,3.70
2023-12-11T01:09:38.001Z,3.80
2023-12-11T01:14:41.277Z,3.70
2023-12-11T01:19:44.713Z,3.70
2023-12-11T01:24:47.837Z,3.70
2023-12-11T01:29:50.787Z,3.60
2023-12-11T01:34:54.144Z,3.60
2023-12-11T01:39:57.326Z,3.60
2023-12-11T01:45:00.718Z,3.60
2023-12-11T01:50:04.662Z,3.60
2023-12-11T01:55:08.304Z,3.60
2023-12-11T02:00:12.373Z,3.70
2023-12-11T02:05:15.450Z,3.60
2023-12-11T02:10:18.917Z,3.60
2023-12-11T02:15:38.516Z,3.60
2023-12-11T02:20:42.800Z,3.60
2023-12-11T02:25:49.965Z,3.50
2023-12-11T02:30:53.027Z,3.60
2023-12-11T02:35:56.102Z,3.60
2023-12-11T02:40:59.132Z,3.50
2023-12-11T02:46:02.099Z,3.60
2023-12-11T02:51:05.924Z,3.60
2023-12-11T02:56:09.707Z,3.50
2023-12-11T03:01:13.336Z,3.50
2023-12-11T03:06:21.059Z,3.50
2023-12-11T03:11:23.961Z,3.50
2023-12-11T03:16:26.865Z,3.50
2023-12-11T03:21:30.523Z,3.50
2023-12-11T03:26:33.837Z,3.50
2023-12-11T03:31:38.288Z,3.50
2023-12-11T03:36:41.784Z,3.50
2023-12-11T03:41:46.202Z,3.50
2023-12-11T03:46:49.444Z,3.50
2023-12-11T03:51:53.122Z,3.40
2023-12-11T03:56:56.367Z,3.40
2023-12-11T04:02:00.510Z,3.50
2023-12-11T04:07:04.458Z,3.40
2023-12-11T04:12:08.430Z,3.40
2023-12-11T04:17:11.583Z,3.40
2023-12-11T04:22:14.925Z,3.40
2023-12-11T04:27:18.456Z,3.30
2023-12-11T04:32:22.005Z,3.40
2023-12-11T04:37:25.238Z,3.30
2023-12-11T04:42:28.435Z,3.40
2023-12-11T04:47:31.827Z,3.40
2023-12-11T04:52:35.420Z,3.40
2023-12-11T04:57:38.610Z,3.40
2023-12-11T05:02:42.375Z,3.40
2023-12-11T05:07:45.866Z,3.40
2023-12-11T05:12:49.376Z,3.40
2023-12-11T05:17:53.129Z,3.50
2023-12-11T05:22:56.287Z,3.50
2023-12-11T05:27:59.615Z,3.50
2023-12-11T05:33:03.299Z,3.50
2023-12-11T05:38:06.584Z,3.40
2023-12-11T05:43:09.718Z,3.50
2023-12-11T05:48:13.234Z,3.50
2023-12-11T05:53:16.730Z,3.50
2023-12-11T05:58:20.334Z,3.60
2023-12-11T06:03:23.425Z,3.60
2023-12-11T06:08:27.921Z,3.60
2023-12-11T06:13:31.548Z,3.60
2023-12-11T06:18:35.112Z,3.70
2023-12-11T06:23:38.271Z,3.60
2023-12-11T06:28:41.624Z,3.60
2023-12-11T06:33:45.347Z,3.70
2023-12-11T06:38:51.977Z,3.70
2023-12-11T06:43:59.406Z,3.70
2023-12-11T06:49:03.996Z,3.80
2023-12-11T06:54:07.613Z,3.70
2023-12-11T06:59:10.826Z,3.70
2023-12-11T07:04:14.448Z,3.80
2023-12-11T07:09:17.855Z,3.80
2023-12-11T07:14:21.855Z,3.90
2023-12-11T07:19:25.310Z,3.80
2023-12-11T07:24:28.728Z,3.80
2023-12-11T07:29:32.209Z,3.80
2023-12-11T07:34:36.582Z,3.80
2023-12-11T07:39:40.368Z,3.80
2023-12-11T07:44:43.733Z,3.80
2023-12-11T07:49:46.991Z,3.90
2023-12-11T07:54:51.133Z,3.80
2023-12-11T07:59:55.102Z,3.90
2023-12-11T08:04:58.760Z,3.90
2023-12-11T08:10:03.130Z,3.90
2023-12-11T08:15:07.108Z,3.90
2023-12-11T08:20:13.554Z,3.90
2023-12-11T08:25:17.370Z,4.00
2023-12-11T08:30:21.101Z,4.00
2023-12-11T08:35:24.553Z,4.00
2023-12-11T08:40:28.104Z,4.00
2023-12-11T08:45:31.700Z,4.10
2023-12-11T08:50:34.922Z,4.10
2023-12-11T08:55:39.765Z,4.10
2023-12-11T09:00:45.963Z,4.20
2023-12-11T09:05:49.481Z,4.20
2023-12-11T09:10:52.963Z,4.30
2023-12-11T09:15:56.341Z,4.30
2023-12-11T09:20:59.734Z,4.30
2023-12-11T09:26:02.821Z,4.40
2023-12-11T09:31:06.691Z,4.50
2023-12-11T09:36:10.161Z,4.50
2023-12-11T09:41:13.850Z,4.60
2023-12-11T09:46:19.628Z,4.70
2023-12-11T09:51:23.682Z,4.70
2023-12-11T09:56:26.925Z,4.80
2023-12-11T10:01:31.457Z,4.90
2023-12-11T10:06:35.091Z,5.00
2023-12-11T10:11:38.565Z,5.10
2023-12-11T10:16:42.138Z,5.20
2023-12-11T10:21:45.918Z,5.20
2023-12-11T10:26:57.335Z,5.30
2023-12-11T10:32:05.861Z,5.40
2023-12-11T10:37:10.428Z,5.50
2023-12-11T10:42:18.052Z,5.60
2023-12-11T10:47:21.756Z,5.80
2023-12-11T10:52:25.713Z,5.90
2023-12-11T10:57:31.618Z,6.10
2023-12-11T11:02:36.456Z,6.20
2023-12-11T11:07:53.893Z,6.40
2023-12-11T11:13:24.865Z,6.50
2023-12-11T11:18:28.320Z,6.70
2023-12-11T11:23:34.091Z,6.80
2023-12-11T11:28:45.782Z,6.80
2023-12-11T11:33:51.796Z,6.80
2023-12-11T11:39:01.675Z,6.90
2023-12-11T11:44:10.737Z,7.00
2023-12-11T11:49:34.121Z,7.00
2023-12-11T11:54:40.061Z,7.10
2023-12-11T11:59:44.750Z,7.10
2023-12-11T12:04:48.680Z,7.10
2023-12-11T12:10:01.004Z,7.10
2023-12-11T12:15:07.303Z,7.10
2023-12-11T12:20:16.570Z,7.10
2023-12-11T12:25:20.463Z,7.20
2023-12-11T12:30:24.549Z,7.20
2023-12-11T12:35:29.053Z,7.20
2023-12-11T12:40:36.520Z,7.20
2023-12-11T12:45:40.791Z,7.20
2023-12-11T12:50:44.569Z,7.20
2023-12-11T12:55:48.246Z,7.10
2023-12-11T13:00:59.396Z,7.10
2023-12-11T13:06:06.440Z,7.10
2023-12-11T13:11:09.732Z,7.10
2023-12-11T13:16:13.271Z,7.10
2023-12-11T13:21:17.016Z,7.20
2023-12-11T13:26:21.779Z,7.10
2023-12-11T13:31:26.083Z,7.10
2023-12-11T13:36:30.152Z,7.10
2023-12-11T13:41:38.300Z,7.10
2023-12-11T13:46:42.062Z,7.10
2023-12-11T13:51:45.628Z,7.20
2023-12-11T13:56:50.153Z,7.10
2023-12-11T14:01:53.578Z,7.10
2023-12-11T14:06:59.373Z,7.10
2023-12-11T14:12:03.122Z,7.10
2023-12-11T14:17:09.420Z,7.10
2023-12-11T14:22:12.987Z,7.10
2023-12-11T14:27:16.400Z,7.10
2023-12-11T14:32:19.600Z,7.10
2023-12-11T14:37:23.158Z,7.00
2023-12-11T14:42:28.433Z,7.00
2023-12-11T14:47:32.428Z,7.00
2023-12-11T14:52:36.024Z,7.00
2023-12-11T14:57:39.340Z,7.00
2023-12-11T15:02:43.652Z,7.00
2023-12-11T15:07:48.567Z,7.00
2023-12-11T15:12:51.711Z,6.90
2023-12-11T15:17:55.441Z,6.90
2023-12-11T15:22:58.857Z,6.90
2023-12-11T15:28:02.853Z,6.90
2023-12-11T15:33:07.556Z,6.80
2023-12-11T15:38:11.143Z,6.80
2023-12-11T15:43:15.377Z,6.70
2023-12-11T15:48:24.229Z,6.70
2023-12-11T15:53:28.620Z,6.70
2023-12-11T15:58:32.110Z,6.70
2023-12-11T16:03:36.008Z,6.70
2023-12-11T16:08:39.553Z,6.70
2023-12-11T16:13:43.532Z,6.70
2023-12-11T16:18:48.277Z,6.70
2023-12-11T16:23:52.078Z,6.60
2023-12-11T16:28:55.577Z,6.70
2023-12-11T16:34:00.983Z,6.70
2023-12-11T16:39:04.555Z,6.70
2023-12-11T16:44:08.247Z,6.60
2023-12-11T16:49:15.636Z,6.60
2023-12-11T16:54:19.181Z,6.60
2023-12-11T16:59:22.400Z,6.60
2023-12-11T17:04:26.124Z,6.60
2023-12-11T17:09:31.168Z,6.60
2023-12-11T17:14:34.617Z,6.40
2023-12-11T17:19:38.357Z,6.50
2023-12-11T17:24:41.685Z,6.40
2023-12-11T17:29:45.494Z,6.40
2023-12-11T17:34:50.393Z,6.30
2023-12-11T17:39:54.947Z,6.30
2023-12-11T17:44:58.679Z,6.30
2023-12-11T17:50:01.913Z,6.40
2023-12-11T17:55:08.054Z,6.40
2023-12-11T18:00:12.108Z,6.40
2023-12-11T18:05:17.461Z,6.40
2023-12-11T18:10:21.329Z,6.40
2023-12-11T18:15:24.739Z,6.40
2023-12-11T18:20:28.460Z,6.40
2023-12-11T18:25:33.188Z,6.40
2023-12-11T18:30:37.340Z,6.40
2023-12-11T18:35:40.860Z,6.40
2023-12-11T18:40:44.439Z,6.30
2023-12-11T18:45:47.887Z,6.30
2023-12-11T18:50:51.054Z,6.10
2023-12-11T18:56:00.673Z,6.10
2023-12-11T19:01:05.116Z,6.00
2023-12-11T19:06:09.460Z,6.00
2023-12-11T19:11:17.418Z,6.00
2023-12-11T19:16:21.015Z,6.00
2023-12-11T19:21:25.091Z,6.00
2023-12-11T19:26:28.594Z,5.90
2023-12-11T19:31:32.880Z,6.00
2023-12-11T19:36:40.537Z,5.90
2023-12-11T19:41:45.120Z,5.90
2023-12-11T19:46:48.769Z,5.90
2023-12-11T19:51:52.505Z,5.90
2023-12-11T19:56:57.090Z,5.80
2023-12-11T20:02:04.517Z,5.70
2023-12-11T20:07:14.124Z,5.70
2023-12-11T20:12:19.205Z,5.80
2023-12-11T20:17:25.129Z,5.90
2023-12-11T20:22:30.549Z,5.80
2023-12-11T20:27:36.970Z,5.70
2023-12-11T20:32:42.465Z,5.60
2023-12-11T20:37:46.569Z,5.70
2023-12-11T20:42:50.715Z,5.60
2023-12-11T20:47:56.737Z,5.50
2023-12-11T20:53:01.340Z,5.40
2023-12-11T20:58:05.934Z,5.40
2023-12-11T21:03:09.820Z,5.30
2023-12-11T21:08:15.123Z,5.30
2023-12-11T21:13:21.621Z,5.40
2023-12-11T21:18:29.918Z,5.40
2023-12-11T21:23:37.404Z,5.50
2023-12-11T21:28:42.222Z,5.40
2023-12-11T21:33:47.528Z,5.30
2023-12-11T21:38:51.407Z,5.20
2023-12-11T21:43:57.251Z,5.20
2023-12-11T21:49:02.967Z,5.10
2023-12-11T21:54:07.505Z,5.10
2023-12-11T21:59:12.225Z,5.10
2023-12-11T22:04:16.689Z,5.10
2023-12-11T22:09:20.806Z,5.10
2023-12-11T22:14:24.848Z,5.00
2023-12-11T22:19:28.458Z,4.90
2023-12-11T22:24:32.370Z,4.80
2023-12-11T22:29:37.561Z,4.80
2023-12-11T22:34:44.471Z,4.80
2023-12-11T22:39:48.151Z,4.80
2023-12-11T22:44:51.514Z,4.80
2023-12-11T22:49:55.428Z,4.70
2023-12-11T22:54:58.947Z,4.60
2023-12-11T23:00:03.421Z,4.60
2023-12-11T23:05:07.714Z,4.60
2023-12-11T23:10:12.923Z,4.60
2023-12-11T23:15:16.450Z,4.50
2023-12-11T23:20:20.219Z,4.50
2023-12-11T23:25:24.551Z,4.40
2023-12-11T23:30:27.696Z,4.40
2023-12-11T23:35:30.656Z,4.30
2023-12-11T23:40:33.789Z,4.20
2023-12-11T23:45:38.008Z,4.20
2023-12-11T23:50:41.767Z,4.10
2023-12-11T23:55:46.598Z,4.20
